LFTH 221130Z AUTO 16006KT 130V200 CAVOK 16/09 Q1032 NOSIG

ElémentsDécodage
LFTH Station météo située sur l'aérodrome de HYERES Le-Palyvestre
221130Z émis le 22 du mois à 11h30 UTC
AUTO Bulletin édité par un automate
16006KT vent du 160°, 06 noeuds
130V200 vent de direction variable entre 130° et 200°
CAVOK Ceiling And Visibility OK
- Visibilité de 10 Km ou plus
- Pas de nuage au-dessous de 1500m ou au-dessous de l'altitude minimale du secteur la plus élevée (si>1500m) et absence de CB
- pas de temps présent significatif
16/09 température 16°C, point de rosée 09°C
 soit une humidité relative de 63%
Q1032 la pression au niveau de la mer (QNH) est de 1032 hPa
NOSIG Pas de changement significatif prévu au cours des deux heures suivant l'heure de l'observation